createdAt,value
2019-02-23T00:01:54.288Z,69.40
2019-02-23T00:04:20.602Z,69.40
2019-02-23T00:06:46.897Z,69.50
2019-02-23T00:09:13.329Z,69.50
2019-02-23T00:11:39.845Z,69.60
2019-02-23T00:14:06.240Z,69.40
2019-02-23T00:16:32.654Z,69.60
2019-02-23T00:18:59.068Z,69.50
2019-02-23T00:21:25.405Z,69.50
2019-02-23T00:23:51.689Z,69.40
2019-02-23T00:26:18.112Z,69.30
2019-02-23T00:28:44.421Z,69.40
2019-02-23T00:31:10.829Z,69.30
2019-02-23T00:33:37.396Z,69.40
2019-02-23T00:36:03.718Z,69.50
2019-02-23T00:38:30.062Z,69.50
2019-02-23T00:40:56.725Z,69.30
2019-02-23T00:43:23.337Z,69.20
2019-02-23T00:45:49.785Z,69.30
2019-02-23T00:48:16.385Z,69.20
2019-02-23T00:50:43.316Z,69.20
2019-02-23T00:53:09.613Z,69.30
2019-02-23T00:55:36.219Z,69.40
2019-02-23T00:58:02.537Z,69.50
2019-02-23T01:00:28.949Z,69.30
2019-02-23T01:02:55.347Z,69.30
2019-02-23T01:05:21.750Z,69.40
2019-02-23T01:07:48.056Z,69.50
2019-02-23T01:10:14.486Z,69.40
2019-02-23T01:12:40.793Z,69.40
2019-02-23T01:15:08.892Z,69.40
2019-02-23T01:17:35.188Z,69.40
2019-02-23T01:20:01.600Z,69.40
2019-02-23T01:22:28.394Z,69.50
2019-02-23T01:24:54.910Z,69.50
2019-02-23T01:27:21.206Z,69.50
2019-02-23T01:29:47.604Z,69.60
2019-02-23T01:32:14.100Z,69.70
2019-02-23T01:34:40.493Z,69.50
2019-02-23T01:37:06.848Z,69.70
2019-02-23T01:39:33.138Z,69.90
2019-02-23T01:41:59.436Z,70.00
2019-02-23T01:44:25.823Z,69.90
2019-02-23T01:46:52.128Z,69.80
2019-02-23T01:49:18.551Z,70.10
2019-02-23T01:51:45.290Z,70.00
2019-02-23T01:54:11.893Z,69.80
2019-02-23T01:56:38.211Z,70.00
2019-02-23T01:59:05.086Z,70.00
2019-02-23T02:01:31.503Z,70.10
2019-02-23T02:03:57.829Z,69.90
2019-02-23T02:06:24.117Z,70.00
2019-02-23T02:08:51.026Z,70.40
2019-02-23T02:11:17.338Z,70.20
2019-02-23T02:13:43.642Z,70.30
2019-02-23T02:16:10.119Z,70.40
2019-02-23T02:18:36.361Z,69.80
2019-02-23T02:21:02.693Z,70.30
2019-02-23T02:23:28.977Z,70.00
2019-02-23T02:25:55.275Z,70.00
2019-02-23T02:28:21.687Z,69.90
2019-02-23T02:30:48.299Z,70.20
2019-02-23T02:33:14.826Z,70.20
2019-02-23T02:35:41.131Z,70.10
2019-02-23T02:38:07.555Z,70.30
2019-02-23T02:40:33.882Z,70.10
2019-02-23T02:43:00.277Z,70.10
2019-02-23T02:45:26.611Z,70.10
2019-02-23T02:47:52.910Z,70.10
2019-02-23T02:50:24.162Z,70.10
2019-02-23T02:52:47.870Z,70.30
2019-02-23T02:55:14.294Z,70.00
2019-02-23T02:57:40.714Z,70.00
2019-02-23T03:00:09.844Z,70.20
2019-02-23T03:02:36.243Z,69.90
2019-02-23T03:05:03.760Z,70.00
2019-02-23T03:07:30.056Z,70.00
2019-02-23T03:09:56.371Z,70.00
2019-02-23T03:12:22.673Z,70.00
2019-02-23T03:14:49.069Z,70.00
2019-02-23T03:17:15.497Z,69.90
2019-02-23T03:19:41.790Z,69.60
2019-02-23T03:22:08.215Z,70.90
2019-02-23T03:24:34.606Z,70.00
2019-02-23T03:27:01.003Z,69.80
2019-02-23T03:29:27.529Z,69.90
2019-02-23T03:31:53.938Z,69.90
2019-02-23T03:34:20.349Z,69.90
2019-02-23T03:36:46.667Z,69.90
2019-02-23T03:39:13.081Z,69.90
2019-02-23T03:41:39.373Z,70.00
2019-02-23T03:44:05.691Z,70.00
2019-02-23T03:46:32.093Z,70.00
2019-02-23T03:48:58.480Z,69.90
2019-02-23T03:51:24.886Z,69.80
2019-02-23T03:53:51.196Z,70.00
2019-02-23T03:56:17.594Z,70.20
2019-02-23T03:58:44.092Z,70.00
2019-02-23T04:01:10.538Z,70.00
2019-02-23T04:03:36.839Z,70.00
2019-02-23T04:06:03.250Z,70.00
2019-02-23T04:08:29.546Z,69.90
2019-02-23T04:10:55.981Z,70.30
2019-02-23T04:13:22.379Z,69.90
2019-02-23T04:15:48.737Z,71.00
2019-02-23T04:18:15.039Z,71.30
2019-02-23T04:20:41.758Z,71.40
2019-02-23T04:23:08.058Z,71.00
2019-02-23T04:25:34.492Z,71.00
2019-02-23T04:28:00.901Z,71.10
2019-02-23T04:30:27.193Z,71.00
2019-02-23T04:32:53.809Z,71.90
2019-02-23T04:35:20.230Z,71.70
2019-02-23T04:37:47.045Z,71.50
2019-02-23T04:40:13.554Z,71.50
2019-02-23T04:42:39.889Z,71.80
2019-02-23T04:45:07.077Z,71.60
2019-02-23T04:47:33.401Z,72.30
2019-02-23T04:49:59.710Z,71.00
2019-02-23T04:52:26.121Z,71.10
2019-02-23T04:54:57.824Z,71.10
2019-02-23T04:57:24.310Z,71.00
2019-02-23T04:59:50.751Z,70.90
2019-02-23T05:02:17.309Z,70.50
2019-02-23T05:04:43.605Z,70.60
2019-02-23T05:07:09.930Z,70.50
2019-02-23T05:09:36.226Z,70.50
2019-02-23T05:12:02.629Z,70.50
2019-02-23T05:14:28.937Z,70.30
2019-02-23T05:16:56.330Z,70.40
2019-02-23T05:19:22.767Z,70.00
2019-02-23T05:21:49.132Z,69.90
2019-02-23T05:24:15.364Z,69.90
2019-02-23T05:26:42.010Z,69.80
2019-02-23T05:29:08.514Z,69.50
2019-02-23T05:31:35.196Z,69.50
2019-02-23T05:34:01.494Z,69.60
2019-02-23T05:36:27.892Z,69.50
2019-02-23T05:38:54.305Z,69.10
2019-02-23T05:41:20.617Z,69.20
2019-02-23T05:43:47.245Z,69.20
2019-02-23T05:46:13.879Z,69.10
2019-02-23T05:48:40.274Z,69.10
2019-02-23T05:51:06.798Z,69.80
2019-02-23T05:53:33.333Z,68.90
2019-02-23T05:55:59.764Z,68.60
2019-02-23T05:58:26.378Z,68.60
2019-02-23T06:00:52.884Z,68.40
2019-02-23T06:03:19.419Z,68.30
2019-02-23T06:05:45.709Z,68.30
2019-02-23T06:08:12.019Z,68.30
2019-02-23T06:10:38.412Z,68.40
2019-02-23T06:13:04.706Z,68.30
2019-02-23T06:15:31.051Z,68.40
2019-02-23T06:17:57.343Z,68.30
2019-02-23T06:20:23.863Z,68.00
2019-02-23T06:22:50.259Z,68.00
2019-02-23T06:25:16.586Z,67.70
2019-02-23T06:27:42.910Z,67.90
2019-02-23T06:30:11.317Z,67.80
2019-02-23T06:32:37.633Z,67.70
2019-02-23T06:35:06.242Z,67.50
2019-02-23T06:37:32.537Z,67.40
2019-02-23T06:39:58.872Z,67.10
2019-02-23T06:42:25.174Z,67.20
2019-02-23T06:44:51.498Z,66.80
2019-02-23T06:47:17.796Z,66.80
2019-02-23T06:49:44.098Z,66.70
2019-02-23T06:52:10.412Z,66.70
2019-02-23T06:54:36.705Z,66.70
2019-02-23T06:57:03.039Z,66.60
2019-02-23T06:59:29.330Z,66.60
2019-02-23T07:01:56.726Z,66.50
2019-02-23T07:04:23.367Z,66.40
2019-02-23T07:06:49.760Z,66.40
2019-02-23T07:09:16.089Z,66.20
2019-02-23T07:11:42.380Z,66.20
2019-02-23T07:14:08.677Z,66.20
2019-02-23T07:16:34.989Z,66.10
2019-02-23T07:19:01.538Z,66.20
2019-02-23T07:21:27.957Z,66.50
2019-02-23T07:23:54.250Z,66.50
2019-02-23T07:26:20.647Z,66.50
2019-02-23T07:28:47.153Z,66.50
2019-02-23T07:31:13.554Z,66.20
2019-02-23T07:33:39.986Z,66.20
2019-02-23T07:36:06.281Z,66.50
2019-02-23T07:38:32.594Z,66.40
2019-02-23T07:40:59.038Z,66.30
2019-02-23T07:43:25.342Z,66.30
2019-02-23T07:45:51.773Z,66.30
2019-02-23T07:48:18.077Z,66.20
2019-02-23T07:50:44.480Z,66.20
2019-02-23T07:53:10.881Z,66.80
2019-02-23T07:55:37.164Z,66.00
2019-02-23T07:58:03.485Z,66.00
2019-02-23T08:00:29.801Z,66.00
2019-02-23T08:02:56.466Z,66.00
2019-02-23T08:05:22.913Z,66.00
2019-02-23T08:07:49.338Z,65.90
2019-02-23T08:10:15.724Z,65.80
2019-02-23T08:12:42.062Z,65.50
2019-02-23T08:15:11.600Z,65.80
2019-02-23T08:17:37.978Z,66.10
2019-02-23T08:20:07.505Z,66.70
2019-02-23T08:22:37.479Z,66.80
2019-02-23T08:25:02.497Z,67.10
2019-02-23T08:27:28.811Z,66.80
2019-02-23T08:29:55.200Z,66.50
2019-02-23T08:32:21.523Z,66.30
2019-02-23T08:34:47.919Z,66.10
2019-02-23T08:37:14.218Z,66.90
2019-02-23T08:39:40.525Z,66.10
2019-02-23T08:42:06.940Z,66.00
2019-02-23T08:44:33.375Z,66.20
2019-02-23T08:46:59.778Z,66.10
2019-02-23T08:49:26.206Z,66.00
2019-02-23T08:51:52.518Z,66.10
2019-02-23T08:54:18.871Z,66.10
2019-02-23T08:56:45.170Z,66.20
2019-02-23T08:59:11.469Z,66.30
2019-02-23T09:01:37.790Z,66.30
2019-02-23T09:04:04.314Z,66.30
2019-02-23T09:06:30.606Z,66.30
2019-02-23T09:08:57.041Z,66.40
2019-02-23T09:11:23.550Z,66.40
2019-02-23T09:13:49.943Z,66.30
2019-02-23T09:16:16.317Z,66.20
2019-02-23T09:18:42.746Z,66.20
2019-02-23T09:21:09.057Z,66.20
2019-02-23T09:23:35.846Z,66.50
2019-02-23T09:26:02.709Z,66.70
2019-02-23T09:28:29.007Z,66.50
2019-02-23T09:30:55.293Z,66.50
2019-02-23T09:33:21.740Z,66.60
2019-02-23T09:35:48.419Z,66.60
2019-02-23T09:38:14.713Z,66.50
2019-02-23T09:40:41.129Z,66.50
2019-02-23T09:43:07.449Z,66.30
2019-02-23T09:45:33.878Z,66.60
2019-02-23T09:48:00.170Z,66.00
2019-02-23T09:50:26.577Z,66.10
2019-02-23T09:52:52.876Z,65.90
2019-02-23T09:55:19.274Z,65.90
2019-02-23T09:57:45.695Z,65.90
2019-02-23T10:00:12.977Z,66.00
2019-02-23T10:02:39.592Z,65.90
2019-02-23T10:05:06.608Z,65.90
2019-02-23T10:07:33.109Z,66.00
2019-02-23T10:09:59.793Z,65.80
2019-02-23T10:12:26.189Z,65.60
2019-02-23T10:14:52.700Z,65.30
2019-02-23T10:17:19.115Z,65.00
2019-02-23T10:19:45.519Z,64.90
2019-02-23T10:22:11.838Z,64.60
2019-02-23T10:24:38.482Z,64.40
2019-02-23T10:27:04.797Z,64.30
2019-02-23T10:29:31.091Z,63.90
2019-02-23T10:31:57.389Z,64.00
2019-02-23T10:34:23.700Z,63.90
2019-02-23T10:36:49.985Z,63.40
2019-02-23T10:39:16.296Z,64.50
2019-02-23T10:41:53.810Z,63.50
2019-02-23T10:44:18.842Z,63.50
2019-02-23T10:46:45.184Z,63.60
2019-02-23T10:49:11.472Z,63.80
2019-02-23T10:51:37.985Z,63.70
2019-02-23T10:54:04.476Z,63.70
2019-02-23T10:56:30.865Z,63.60
2019-02-23T10:58:57.179Z,64.10
2019-02-23T11:01:23.482Z,64.30
2019-02-23T11:03:49.774Z,63.90
2019-02-23T11:06:16.131Z,63.40
2019-02-23T11:08:42.629Z,63.40
2019-02-23T11:11:09.057Z,64.30
2019-02-23T11:13:35.355Z,65.30
2019-02-23T11:16:13.331Z,65.30
2019-02-23T11:18:45.055Z,64.50
2019-02-23T11:21:11.758Z,64.70
2019-02-23T11:23:44.303Z,65.50
2019-02-23T11:26:06.277Z,66.00
2019-02-23T11:28:32.570Z,65.50
2019-02-23T11:30:58.998Z,64.70
2019-02-23T11:33:25.390Z,64.00
2019-02-23T11:35:51.685Z,63.90
2019-02-23T11:38:18.198Z,63.80
2019-02-23T11:40:44.513Z,63.80
2019-02-23T11:43:10.958Z,64.00
2019-02-23T11:45:37.249Z,64.30
2019-02-23T11:48:03.638Z,64.70
2019-02-23T11:50:30.064Z,65.00
2019-02-23T11:52:56.470Z,64.80
2019-02-23T11:55:22.778Z,64.30
2019-02-23T11:57:49.071Z,64.30
2019-02-23T12:00:15.385Z,64.20
2019-02-23T12:02:51.748Z,63.90
2019-02-23T12:05:10.189Z,63.90
2019-02-23T12:07:36.521Z,63.80
2019-02-23T12:10:06.220Z,63.70
2019-02-23T12:12:32.514Z,63.90
2019-02-23T12:14:58.808Z,63.80
2019-02-23T12:17:25.110Z,63.80
2019-02-23T12:19:51.417Z,63.90
2019-02-23T12:22:17.713Z,63.90
2019-02-23T12:24:44.017Z,63.80
2019-02-23T12:27:10.312Z,63.70
2019-02-23T12:29:36.620Z,64.00
2019-02-23T12:32:03.034Z,63.90
2019-02-23T12:34:29.443Z,64.20
2019-02-23T12:36:57.546Z,64.20
2019-02-23T12:39:24.052Z,64.40
2019-02-23T12:41:50.360Z,64.30
2019-02-23T12:44:16.769Z,64.40
2019-02-23T12:46:43.321Z,64.40
2019-02-23T12:49:09.615Z,64.40
2019-02-23T12:51:35.926Z,64.50
2019-02-23T12:54:02.379Z,64.50
2019-02-23T12:56:33.884Z,64.30
2019-02-23T12:59:00.183Z,64.20
2019-02-23T13:01:26.487Z,64.30
2019-02-23T13:03:52.809Z,64.40
2019-02-23T13:06:19.101Z,64.30
2019-02-23T13:09:10.497Z,64.30
2019-02-23T13:11:36.797Z,64.20
2019-02-23T13:14:32.512Z,64.30
2019-02-23T13:17:19.491Z,64.20
2019-02-23T13:20:23.002Z,64.80
2019-02-23T13:23:01.704Z,64.50
2019-02-23T13:25:43.497Z,64.60
2019-02-23T13:28:25.477Z,64.70
2019-02-23T13:31:14.782Z,64.90
2019-02-23T13:33:49.889Z,65.00
2019-02-23T13:36:28.730Z,65.10
2019-02-23T13:39:04.810Z,65.20
2019-02-23T13:41:46.727Z,65.10
2019-02-23T13:44:36.359Z,65.20
2019-02-23T13:47:09.489Z,65.30
2019-02-23T13:49:42.540Z,65.20
2019-02-23T13:52:15.750Z,65.10
2019-02-23T13:55:02.746Z,65.10
2019-02-23T13:57:47.953Z,64.90
2019-02-23T14:00:36.608Z,64.80
2019-02-23T14:03:22.432Z,64.70
2019-02-23T14:06:17.575Z,64.70
2019-02-23T14:09:13.642Z,64.80
2019-02-23T14:11:46.954Z,56.70
2019-02-23T14:14:19.849Z,48.40
2019-02-23T14:17:05.162Z,53.20
2019-02-23T14:19:35.302Z,54.90
2019-02-23T14:22:11.576Z,56.10
2019-02-23T14:25:04.350Z,57.00
2019-02-23T14:27:40.729Z,57.60
2019-02-23T14:30:27.270Z,58.30
2019-02-23T14:33:17.003Z,58.70
2019-02-23T14:35:59.459Z,59.10
2019-02-23T14:39:04.887Z,59.30
2019-02-23T14:41:46.897Z,59.60
2019-02-23T14:44:25.809Z,59.90
2019-02-23T14:47:08.007Z,60.40
2019-02-23T14:49:43.731Z,60.40
2019-02-23T14:52:47.193Z,61.80
2019-02-23T14:55:20.214Z,61.10
2019-02-23T14:57:56.345Z,61.30
2019-02-23T15:00:32.137Z,61.40
2019-02-23T15:03:18.917Z,61.30
2019-02-23T15:05:55.075Z,61.50
2019-02-23T15:08:31.086Z,61.20
2019-02-23T15:11:07.361Z,61.30
2019-02-23T15:13:54.478Z,61.20
2019-02-23T15:16:30.407Z,61.40
2019-02-23T15:19:00.582Z,61.50
2019-02-23T15:21:42.969Z,61.40
2019-02-23T15:24:32.956Z,61.60
2019-02-23T15:27:05.901Z,61.80
2019-02-23T15:29:36.116Z,62.10
2019-02-23T15:32:09.232Z,62.80
2019-02-23T15:35:11.234Z,62.10
2019-02-23T15:37:53.553Z,62.50
2019-02-23T15:40:29.685Z,62.00
2019-02-23T15:43:08.735Z,62.30
2019-02-23T15:45:50.941Z,62.10
2019-02-23T15:48:32.942Z,62.10
2019-02-23T15:51:03.214Z,61.90
2019-02-23T15:53:29.653Z,61.60
2019-02-23T15:55:56.169Z,61.30
2019-02-23T15:58:24.586Z,61.30
2019-02-23T16:00:51.338Z,61.20
2019-02-23T16:03:19.309Z,61.20
2019-02-23T16:05:45.809Z,61.30
2019-02-23T16:08:12.313Z,61.20
2019-02-23T16:10:38.689Z,61.30
2019-02-23T16:13:04.978Z,60.90
2019-02-23T16:15:31.374Z,60.60
2019-02-23T16:17:57.919Z,60.60
2019-02-23T16:20:24.209Z,60.60
2019-02-23T16:22:50.510Z,60.60
2019-02-23T16:25:17.150Z,60.30
2019-02-23T16:27:43.497Z,60.20
2019-02-23T16:30:09.894Z,60.20
2019-02-23T16:32:36.181Z,60.30
2019-02-23T16:35:04.023Z,60.20
2019-02-23T16:37:30.325Z,60.10
2019-02-23T16:39:56.749Z,60.10
2019-02-23T16:42:23.061Z,60.10
2019-02-23T16:44:49.369Z,60.10
2019-02-23T16:47:16.315Z,60.00
2019-02-23T16:49:42.638Z,60.00
2019-02-23T16:52:09.401Z,60.00
2019-02-23T16:54:36.455Z,60.10
2019-02-23T16:57:02.884Z,59.90
2019-02-23T16:59:29.390Z,60.00
2019-02-23T17:01:55.706Z,60.00
2019-02-23T17:04:22.361Z,60.00
2019-02-23T17:06:48.668Z,59.80
2019-02-23T17:09:15.172Z,59.90
2019-02-23T17:11:41.470Z,60.00
2019-02-23T17:14:07.886Z,59.90
2019-02-23T17:16:34.273Z,60.00
2019-02-23T17:19:00.699Z,60.70
2019-02-23T17:21:31.602Z,60.70
2019-02-23T17:23:57.982Z,61.70
2019-02-23T17:26:24.411Z,61.50
2019-02-23T17:28:50.804Z,61.90
2019-02-23T17:31:17.225Z,62.10
2019-02-23T17:33:43.638Z,62.30
2019-02-23T17:36:10.429Z,62.10
2019-02-23T17:38:37.059Z,62.80
2019-02-23T17:41:03.545Z,64.50
2019-02-23T17:43:29.906Z,65.60
2019-02-23T17:45:56.598Z,65.50
2019-02-23T17:48:23.015Z,65.40
2019-02-23T17:50:50.714Z,65.40
2019-02-23T17:53:17.231Z,65.80
2019-02-23T17:55:43.660Z,66.30
2019-02-23T17:58:09.957Z,66.50
2019-02-23T18:00:37.409Z,66.50
2019-02-23T18:03:03.833Z,66.80
2019-02-23T18:05:31.147Z,66.60
2019-02-23T18:07:57.810Z,66.50
2019-02-23T18:10:24.186Z,67.20
2019-02-23T18:12:50.518Z,66.20
2019-02-23T18:15:18.366Z,66.20
2019-02-23T18:17:44.722Z,66.20
2019-02-23T18:20:13.049Z,66.10
2019-02-23T18:22:41.293Z,66.10
2019-02-23T18:25:08.094Z,65.90
2019-02-23T18:27:34.413Z,65.60
2019-02-23T18:30:10.773Z,65.60
2019-02-23T18:32:28.942Z,65.60
2019-02-23T18:34:55.344Z,65.50
2019-02-23T18:37:22.200Z,65.20
2019-02-23T18:39:49.875Z,65.60
2019-02-23T18:42:16.295Z,65.50
2019-02-23T18:44:42.778Z,65.50
2019-02-23T18:47:09.649Z,65.10
2019-02-23T18:49:35.938Z,65.70
2019-02-23T18:52:02.512Z,64.40
2019-02-23T18:54:30.889Z,64.90
2019-02-23T18:56:57.750Z,65.90
2019-02-23T18:59:24.046Z,66.50
2019-02-23T19:01:50.441Z,67.00
2019-02-23T19:04:16.743Z,66.70
2019-02-23T19:06:43.061Z,66.40
2019-02-23T19:09:09.489Z,65.50
2019-02-23T19:11:35.869Z,65.50
2019-02-23T19:14:02.389Z,66.60
2019-02-23T19:16:28.698Z,66.70
2019-02-23T19:18:55.098Z,69.10
2019-02-23T19:21:21.517Z,69.80
2019-02-23T19:23:50.653Z,69.60
2019-02-23T19:26:17.114Z,69.50
2019-02-23T19:28:43.563Z,68.70
2019-02-23T19:31:10.226Z,67.40
2019-02-23T19:33:36.629Z,69.20
2019-02-23T19:36:02.925Z,69.10
2019-02-23T19:38:29.241Z,69.50
2019-02-23T19:40:55.638Z,69.30
2019-02-23T19:43:22.070Z,69.10
2019-02-23T19:45:48.585Z,69.10
2019-02-23T19:48:15.275Z,68.00
2019-02-23T19:50:45.402Z,67.90
2019-02-23T19:53:11.815Z,67.60
2019-02-23T19:55:38.733Z,67.20
2019-02-23T19:58:05.037Z,67.30
2019-02-23T20:00:31.448Z,67.10
2019-02-23T20:02:57.762Z,67.20
2019-02-23T20:05:24.073Z,66.80
2019-02-23T20:07:50.575Z,67.30
2019-02-23T20:10:17.098Z,66.90
2019-02-23T20:12:43.504Z,66.70
2019-02-23T20:15:10.119Z,66.10
2019-02-23T20:17:36.517Z,66.70
2019-02-23T20:20:04.327Z,66.60
2019-02-23T20:22:30.753Z,66.60
2019-02-23T20:24:57.261Z,66.70
2019-02-23T20:27:23.876Z,66.70
2019-02-23T20:29:50.134Z,66.20
2019-02-23T20:32:16.416Z,66.00
2019-02-23T20:34:42.832Z,66.50
2019-02-23T20:37:09.984Z,66.20
2019-02-23T20:39:36.718Z,66.10
2019-02-23T20:42:03.032Z,66.50
2019-02-23T20:44:29.598Z,66.50
2019-02-23T20:46:56.025Z,65.60
2019-02-23T20:49:22.322Z,66.40
2019-02-23T20:51:48.864Z,67.30
2019-02-23T20:54:15.407Z,66.30
2019-02-23T20:56:42.074Z,66.10
2019-02-23T20:59:08.387Z,66.30
2019-02-23T21:01:34.797Z,66.10
2019-02-23T21:04:01.624Z,66.00
2019-02-23T21:06:28.176Z,65.90
2019-02-23T21:08:54.605Z,65.60
2019-02-23T21:11:21.183Z,66.10
2019-02-23T21:13:47.709Z,66.00
2019-02-23T21:16:15.341Z,65.80
2019-02-23T21:18:41.953Z,66.00
2019-02-23T21:21:08.475Z,66.00
2019-02-23T21:23:34.821Z,65.70
2019-02-23T21:26:01.129Z,65.70
2019-02-23T21:28:27.660Z,65.50
2019-02-23T21:30:54.060Z,65.50
2019-02-23T21:33:20.471Z,65.50
2019-02-23T21:35:46.909Z,65.50
2019-02-23T21:38:13.536Z,65.30
2019-02-23T21:40:39.840Z,65.30
2019-02-23T21:43:06.362Z,65.40
2019-02-23T21:45:32.778Z,65.60
2019-02-23T21:47:59.533Z,65.40
2019-02-23T21:50:25.942Z,65.50
2019-02-23T21:52:52.321Z,65.60
2019-02-23T21:55:18.603Z,65.40
2019-02-23T21:57:45.019Z,65.30
2019-02-23T22:00:11.434Z,65.50
2019-02-23T22:02:37.846Z,65.30
2019-02-23T22:05:12.069Z,65.60
2019-02-23T22:07:32.870Z,65.30
2019-02-23T22:09:59.369Z,65.40
2019-02-23T22:12:25.773Z,65.30
2019-02-23T22:14:52.165Z,65.30
2019-02-23T22:17:18.485Z,65.30
2019-02-23T22:19:44.775Z,65.30
2019-02-23T22:22:11.173Z,65.30
2019-02-23T22:24:37.470Z,65.40
2019-02-23T22:27:03.899Z,65.40
2019-02-23T22:29:30.403Z,65.40
2019-02-23T22:31:56.808Z,65.60
2019-02-23T22:34:23.219Z,65.60
2019-02-23T22:36:49.730Z,65.70
2019-02-23T22:39:16.580Z,65.60
2019-02-23T22:41:49.437Z,65.80
2019-02-23T22:44:11.218Z,65.70
2019-02-23T22:46:37.618Z,65.70
2019-02-23T22:49:04.168Z,65.60
2019-02-23T22:51:30.465Z,65.70
2019-02-23T22:53:56.761Z,65.80
2019-02-23T22:56:23.401Z,65.90
2019-02-23T22:58:49.698Z,65.80
2019-02-23T23:01:16.322Z,65.80
2019-02-23T23:03:42.756Z,66.20
2019-02-23T23:06:09.067Z,66.30
2019-02-23T23:08:35.894Z,66.30
2019-02-23T23:11:02.513Z,66.40
2019-02-23T23:13:28.890Z,66.30
2019-02-23T23:15:55.308Z,66.40
2019-02-23T23:18:21.597Z,66.60
2019-02-23T23:20:47.894Z,66.60
2019-02-23T23:23:14.317Z,67.00
2019-02-23T23:25:40.634Z,66.90
2019-02-23T23:28:07.046Z,67.00
2019-02-23T23:30:33.349Z,67.10
2019-02-23T23:32:59.636Z,67.20
2019-02-23T23:35:26.155Z,67.30
2019-02-23T23:37:52.562Z,67.20
2019-02-23T23:40:19.010Z,67.50
2019-02-23T23:42:45.430Z,67.50
2019-02-23T23:45:11.962Z,67.50
2019-02-23T23:47:38.348Z,67.60
2019-02-23T23:50:05.047Z,67.60
2019-02-23T23:52:31.698Z,67.50
2019-02-23T23:54:58.104Z,67.60
2019-02-23T23:57:24.392Z,67.60
2019-02-23T23:59:50.713Z,68.10
